Accueil
METAR-TAF:

METAR-TAF

Aéroports :

Boulder City, Nevada, États-Unis

latitude: 35-56-50N, longitude: 114-51-37W, altitude: 671 m

Observation

Le bulletin a été fait il y a 16 minutes, à 22:15 UTC
Vent 20 kt de sud
Température 16°C
Humidité 45%
Pression 1000 hPa
Visibilité: 16.1 km
Nuages épars à une hauteur de 8500 ft

METAR: KBVU 202215Z AUTO 19020KT 10SM SCT085 16/04 A2952 RMK AO2

Heure: 14:31 (22:31 UTC)


TAF: absent

Observations et prévisions météorologiques de plus de 4000 aéroports (messages METAR et TAF).

Les stations disponibles sont représentées par des disques jaunes et rouges sur la carte.

Passer la souris dessus pour voir le nom de la station.

Cliquer dessus pour voir les observations et prévisions météorologiques.

Pour changer de carte: cliquez sur les boutons verts avec une croix noire pour zoomer, sur le bouton vert avec un tiret pour effectuer un zoom arrière, ou sur les flèches vertes pour les cartes adjacentes.


METAR-TAF: